sensor_id;sensor_type;location;lat;lon;timestamp;temperature;humidity
17307;DHT22;8771;48.048;7.682;2024-01-25T00:02:51;12.90;85.80
17307;DHT22;8771;48.048;7.682;2024-01-25T00:07:54;12.80;85.80
17307;DHT22;8771;48.048;7.682;2024-01-25T00:12:58;12.80;85.90
17307;DHT22;8771;48.048;7.682;2024-01-25T00:18:01;12.80;86.10
17307;DHT22;8771;48.048;7.682;2024-01-25T00:23:04;12.80;86.10
17307;DHT22;8771;48.048;7.682;2024-01-25T00:28:08;12.80;86.20
17307;DHT22;8771;48.048;7.682;2024-01-25T00:33:11;12.80;86.40
17307;DHT22;8771;48.048;7.682;2024-01-25T00:38:14;12.80;86.40
17307;DHT22;8771;48.048;7.682;2024-01-25T00:43:19;12.80;86.40
17307;DHT22;8771;48.048;7.682;2024-01-25T00:48:23;12.80;86.30
17307;DHT22;8771;48.048;7.682;2024-01-25T00:53:26;12.80;86.40
17307;DHT22;8771;48.048;7.682;2024-01-25T00:58:31;12.80;86.20
17307;DHT22;8771;48.048;7.682;2024-01-25T01:03:34;12.80;86.20
17307;DHT22;8771;48.048;7.682;2024-01-25T01:08:38;12.80;86.10
17307;DHT22;8771;48.048;7.682;2024-01-25T01:13:42;12.70;85.90
17307;DHT22;8771;48.048;7.682;2024-01-25T01:18:45;12.70;86.10
17307;DHT22;8771;48.048;7.682;2024-01-25T01:23:48;12.70;86.30
17307;DHT22;8771;48.048;7.682;2024-01-25T01:28:52;12.70;86.30
17307;DHT22;8771;48.048;7.682;2024-01-25T01:33:55;12.70;86.40
17307;DHT22;8771;48.048;7.682;2024-01-25T01:38:59;12.70;86.50
17307;DHT22;8771;48.048;7.682;2024-01-25T01:44:04;12.70;86.50
17307;DHT22;8771;48.048;7.682;2024-01-25T01:49:07;12.70;86.50
17307;DHT22;8771;48.048;7.682;2024-01-25T01:54:10;12.60;86.50
17307;DHT22;8771;48.048;7.682;2024-01-25T01:59:15;12.60;86.70
17307;DHT22;8771;48.048;7.682;2024-01-25T02:04:18;12.60;86.90
17307;DHT22;8771;48.048;7.682;2024-01-25T02:09:21;12.50;86.90
17307;DHT22;8771;48.048;7.682;2024-01-25T02:14:25;12.50;87.20
17307;DHT22;8771;48.048;7.682;2024-01-25T02:19:28;12.50;87.20
17307;DHT22;8771;48.048;7.682;2024-01-25T02:24:32;12.50;87.20
17307;DHT22;8771;48.048;7.682;2024-01-25T02:29:35;12.50;87.40
17307;DHT22;8771;48.048;7.682;2024-01-25T02:34:38;12.40;87.50
17307;DHT22;8771;48.048;7.682;2024-01-25T02:39:43;12.40;87.70
17307;DHT22;8771;48.048;7.682;2024-01-25T02:44:45;12.50;87.80
17307;DHT22;8771;48.048;7.682;2024-01-25T02:49:48;12.50;87.80
17307;DHT22;8771;48.048;7.682;2024-01-25T02:54:53;12.50;87.80
17307;DHT22;8771;48.048;7.682;2024-01-25T02:59:55;12.50;87.90
17307;DHT22;8771;48.048;7.682;2024-01-25T03:04:58;12.50;87.90
17307;DHT22;8771;48.048;7.682;2024-01-25T03:10:03;12.50;88.00
17307;DHT22;8771;48.048;7.682;2024-01-25T03:15:07;12.40;88.00
17307;DHT22;8771;48.048;7.682;2024-01-25T03:20:10;12.40;88.10
17307;DHT22;8771;48.048;7.682;2024-01-25T03:25:15;12.40;88.10
17307;DHT22;8771;48.048;7.682;2024-01-25T03:30:18;12.40;88.10
17307;DHT22;8771;48.048;7.682;2024-01-25T03:35:23;12.40;88.10
17307;DHT22;8771;48.048;7.682;2024-01-25T03:40:27;12.40;89.00
17307;DHT22;8771;48.048;7.682;2024-01-25T03:45:30;12.40;88.30
17307;DHT22;8771;48.048;7.682;2024-01-25T03:50:34;12.30;88.30
17307;DHT22;8771;48.048;7.682;2024-01-25T03:55:38;12.30;88.40
17307;DHT22;8771;48.048;7.682;2024-01-25T04:00:41;12.30;88.50
17307;DHT22;8771;48.048;7.682;2024-01-25T04:05:44;12.30;88.50
17307;DHT22;8771;48.048;7.682;2024-01-25T04:10:48;12.30;88.50
17307;DHT22;8771;48.048;7.682;2024-01-25T04:15:51;12.20;88.60
17307;DHT22;8771;48.048;7.682;2024-01-25T04:20:54;12.20;88.90
17307;DHT22;8771;48.048;7.682;2024-01-25T04:25:58;12.20;89.00
17307;DHT22;8771;48.048;7.682;2024-01-25T04:31:01;12.20;89.00
17307;DHT22;8771;48.048;7.682;2024-01-25T04:36:04;12.30;89.20
17307;DHT22;8771;48.048;7.682;2024-01-25T04:41:07;12.30;89.20
17307;DHT22;8771;48.048;7.682;2024-01-25T04:46:09;12.30;89.00
17307;DHT22;8771;48.048;7.682;2024-01-25T04:51:15;12.20;88.90
17307;DHT22;8771;48.048;7.682;2024-01-25T04:56:20;12.20;88.70
17307;DHT22;8771;48.048;7.682;2024-01-25T05:01:23;12.10;88.30
17307;DHT22;8771;48.048;7.682;2024-01-25T05:06:26;12.00;87.90
17307;DHT22;8771;48.048;7.682;2024-01-25T05:11:30;12.00;87.50
17307;DHT22;8771;48.048;7.682;2024-01-25T05:16:33;11.90;87.10
17307;DHT22;8771;48.048;7.682;2024-01-25T05:21:37;11.90;86.90
17307;DHT22;8771;48.048;7.682;2024-01-25T05:26:41;11.80;86.70
17307;DHT22;8771;48.048;7.682;2024-01-25T05:31:44;11.70;86.60
17307;DHT22;8771;48.048;7.682;2024-01-25T05:36:46;11.70;86.60
17307;DHT22;8771;48.048;7.682;2024-01-25T05:41:49;11.80;86.60
17307;DHT22;8771;48.048;7.682;2024-01-25T05:46:53;11.80;86.40
17307;DHT22;8771;48.048;7.682;2024-01-25T05:51:56;11.80;86.20
17307;DHT22;8771;48.048;7.682;2024-01-25T05:57:00;11.80;86.30
17307;DHT22;8771;48.048;7.682;2024-01-25T06:02:04;11.80;86.40
17307;DHT22;8771;48.048;7.682;2024-01-25T06:07:07;11.80;86.70
17307;DHT22;8771;48.048;7.682;2024-01-25T06:12:11;11.80;86.90
17307;DHT22;8771;48.048;7.682;2024-01-25T06:17:14;11.70;87.00
17307;DHT22;8771;48.048;7.682;2024-01-25T06:22:17;11.70;87.10
17307;DHT22;8771;48.048;7.682;2024-01-25T06:27:21;11.70;87.20
17307;DHT22;8771;48.048;7.682;2024-01-25T06:32:24;11.70;87.30
17307;DHT22;8771;48.048;7.682;2024-01-25T06:37:26;11.80;87.50
17307;DHT22;8771;48.048;7.682;2024-01-25T06:42:29;11.80;87.50
17307;DHT22;8771;48.048;7.682;2024-01-25T06:47:32;11.80;87.50
17307;DHT22;8771;48.048;7.682;2024-01-25T06:52:35;11.80;87.70
17307;DHT22;8771;48.048;7.682;2024-01-25T06:57:39;11.80;87.70
17307;DHT22;8771;48.048;7.682;2024-01-25T07:02:42;11.80;87.80
17307;DHT22;8771;48.048;7.682;2024-01-25T07:07:46;11.80;87.80
17307;DHT22;8771;48.048;7.682;2024-01-25T07:12:50;11.80;87.80
17307;DHT22;8771;48.048;7.682;2024-01-25T07:17:53;11.70;88.00
17307;DHT22;8771;48.048;7.682;2024-01-25T07:22:55;11.70;88.20
17307;DHT22;8771;48.048;7.682;2024-01-25T07:27:59;11.70;88.20
17307;DHT22;8771;48.048;7.682;2024-01-25T07:33:01;11.60;88.30
17307;DHT22;8771;48.048;7.682;2024-01-25T07:38:03;11.60;88.40
17307;DHT22;8771;48.048;7.682;2024-01-25T07:43:07;11.70;88.50
17307;DHT22;8771;48.048;7.682;2024-01-25T07:48:09;11.70;88.50
17307;DHT22;8771;48.048;7.682;2024-01-25T07:53:11;11.70;88.50
17307;DHT22;8771;48.048;7.682;2024-01-25T07:58:16;11.80;88.60
17307;DHT22;8771;48.048;7.682;2024-01-25T08:03:19;11.80;88.50
17307;DHT22;8771;48.048;7.682;2024-01-25T08:08:22;11.80;88.40
17307;DHT22;8771;48.048;7.682;2024-01-25T08:13:26;11.80;88.40
17307;DHT22;8771;48.048;7.682;2024-01-25T08:18:31;11.90;88.40
17307;DHT22;8771;48.048;7.682;2024-01-25T08:23:35;12.00;88.40
17307;DHT22;8771;48.048;7.682;2024-01-25T08:28:40;12.00;88.30
17307;DHT22;8771;48.048;7.682;2024-01-25T08:33:44;12.10;88.40
17307;DHT22;8771;48.048;7.682;2024-01-25T08:38:49;12.10;88.30
17307;DHT22;8771;48.048;7.682;2024-01-25T08:43:53;12.20;88.10
17307;DHT22;8771;48.048;7.682;2024-01-25T08:48:56;12.30;88.00
17307;DHT22;8771;48.048;7.682;2024-01-25T08:53:59;12.30;87.90
17307;DHT22;8771;48.048;7.682;2024-01-25T08:59:03;12.30;87.80
17307;DHT22;8771;48.048;7.682;2024-01-25T09:04:05;12.40;87.90
17307;DHT22;8771;48.048;7.682;2024-01-25T09:09:09;12.40;87.80
17307;DHT22;8771;48.048;7.682;2024-01-25T09:14:15;12.50;87.70
17307;DHT22;8771;48.048;7.682;2024-01-25T09:19:18;12.50;87.50
17307;DHT22;8771;48.048;7.682;2024-01-25T09:24:21;12.60;87.50
17307;DHT22;8771;48.048;7.682;2024-01-25T09:29:25;12.60;87.50
17307;DHT22;8771;48.048;7.682;2024-01-25T09:34:28;12.60;87.50
17307;DHT22;8771;48.048;7.682;2024-01-25T09:39:31;12.60;87.40
17307;DHT22;8771;48.048;7.682;2024-01-25T09:44:36;12.60;87.30
17307;DHT22;8771;48.048;7.682;2024-01-25T09:49:39;12.70;87.30
17307;DHT22;8771;48.048;7.682;2024-01-25T09:54:43;12.60;87.10
17307;DHT22;8771;48.048;7.682;2024-01-25T09:59:49;12.70;87.10
17307;DHT22;8771;48.048;7.682;2024-01-25T10:04:54;12.80;87.00
17307;DHT22;8771;48.048;7.682;2024-01-25T10:09:57;12.90;86.80
17307;DHT22;8771;48.048;7.682;2024-01-25T10:15:03;13.00;86.80
17307;DHT22;8771;48.048;7.682;2024-01-25T10:20:07;13.10;86.40
17307;DHT22;8771;48.048;7.682;2024-01-25T10:25:12;13.10;86.10
17307;DHT22;8771;48.048;7.682;2024-01-25T10:30:17;13.00;86.10
17307;DHT22;8771;48.048;7.682;2024-01-25T10:35:21;13.00;86.20
17307;DHT22;8771;48.048;7.682;2024-01-25T10:40:24;13.00;86.20
17307;DHT22;8771;48.048;7.682;2024-01-25T10:45:28;13.00;86.20
17307;DHT22;8771;48.048;7.682;2024-01-25T10:50:31;13.00;86.20
17307;DHT22;8771;48.048;7.682;2024-01-25T10:55:34;13.10;86.20
17307;DHT22;8771;48.048;7.682;2024-01-25T11:00:39;13.10;86.20
17307;DHT22;8771;48.048;7.682;2024-01-25T11:05:41;13.10;86.20
17307;DHT22;8771;48.048;7.682;2024-01-25T11:10:48;13.20;86.10
17307;DHT22;8771;48.048;7.682;2024-01-25T11:15:53;13.20;85.70
17307;DHT22;8771;48.048;7.682;2024-01-25T11:21:00;13.20;85.50
17307;DHT22;8771;48.048;7.682;2024-01-25T11:26:03;13.30;85.60
17307;DHT22;8771;48.048;7.682;2024-01-25T11:31:12;13.40;85.40
17307;DHT22;8771;48.048;7.682;2024-01-25T11:36:15;13.50;85.10
17307;DHT22;8771;48.048;7.682;2024-01-25T11:41:17;13.50;84.70
17307;DHT22;8771;48.048;7.682;2024-01-25T11:46:21;13.60;84.40
17307;DHT22;8771;48.048;7.682;2024-01-25T11:51:24;13.60;84.00
17307;DHT22;8771;48.048;7.682;2024-01-25T11:56:29;13.70;83.90
17307;DHT22;8771;48.048;7.682;2024-01-25T12:01:33;13.70;83.70
17307;DHT22;8771;48.048;7.682;2024-01-25T12:06:36;13.80;83.50
17307;DHT22;8771;48.048;7.682;2024-01-25T12:11:40;13.80;83.20
17307;DHT22;8771;48.048;7.682;2024-01-25T12:16:45;13.90;82.90
17307;DHT22;8771;48.048;7.682;2024-01-25T12:21:48;13.90;82.60
17307;DHT22;8771;48.048;7.682;2024-01-25T12:26:52;13.90;82.60
17307;DHT22;8771;48.048;7.682;2024-01-25T12:31:58;14.00;82.80
17307;DHT22;8771;48.048;7.682;2024-01-25T12:37:00;14.00;82.70
17307;DHT22;8771;48.048;7.682;2024-01-25T12:42:02;14.20;82.70
17307;DHT22;8771;48.048;7.682;2024-01-25T12:47:06;14.30;82.30
17307;DHT22;8771;48.048;7.682;2024-01-25T12:52:08;14.40;81.90
17307;DHT22;8771;48.048;7.682;2024-01-25T12:57:10;14.50;81.30
17307;DHT22;8771;48.048;7.682;2024-01-25T13:02:14;14.60;80.70
17307;DHT22;8771;48.048;7.682;2024-01-25T13:07:15;14.70;80.10
17307;DHT22;8771;48.048;7.682;2024-01-25T13:12:17;14.80;80.20
17307;DHT22;8771;48.048;7.682;2024-01-25T13:17:21;14.80;80.30
17307;DHT22;8771;48.048;7.682;2024-01-25T13:22:24;14.90;80.20
17307;DHT22;8771;48.048;7.682;2024-01-25T13:27:26;15.00;80.40
17307;DHT22;8771;48.048;7.682;2024-01-25T13:32:29;15.00;80.70
17307;DHT22;8771;48.048;7.682;2024-01-25T13:37:31;15.10;80.90
17307;DHT22;8771;48.048;7.682;2024-01-25T13:42:33;15.10;80.70
17307;DHT22;8771;48.048;7.682;2024-01-25T13:47:36;15.20;80.60
17307;DHT22;8771;48.048;7.682;2024-01-25T13:52:41;15.20;80.40
17307;DHT22;8771;48.048;7.682;2024-01-25T13:57:43;15.20;80.40
17307;DHT22;8771;48.048;7.682;2024-01-25T14:02:47;15.20;80.60
17307;DHT22;8771;48.048;7.682;2024-01-25T14:07:50;15.20;80.70
17307;DHT22;8771;48.048;7.682;2024-01-25T14:12:53;15.20;80.90
17307;DHT22;8771;48.048;7.682;2024-01-25T14:17:58;15.10;80.90
17307;DHT22;8771;48.048;7.682;2024-01-25T14:23:01;15.10;80.90
17307;DHT22;8771;48.048;7.682;2024-01-25T14:28:04;15.10;80.90
17307;DHT22;8771;48.048;7.682;2024-01-25T14:33:08;15.10;81.00
17307;DHT22;8771;48.048;7.682;2024-01-25T14:38:11;15.10;81.20
17307;DHT22;8771;48.048;7.682;2024-01-25T14:43:14;15.10;81.20
17307;DHT22;8771;48.048;7.682;2024-01-25T14:48:18;15.10;81.30
17307;DHT22;8771;48.048;7.682;2024-01-25T14:53:21;15.00;81.40
17307;DHT22;8771;48.048;7.682;2024-01-25T14:58:24;15.00;81.60
17307;DHT22;8771;48.048;7.682;2024-01-25T15:03:29;15.00;81.70
17307;DHT22;8771;48.048;7.682;2024-01-25T15:08:31;15.00;81.60
17307;DHT22;8771;48.048;7.682;2024-01-25T15:13:34;14.90;81.60
17307;DHT22;8771;48.048;7.682;2024-01-25T15:18:38;14.90;81.80
17307;DHT22;8771;48.048;7.682;2024-01-25T15:23:40;14.80;81.80
17307;DHT22;8771;48.048;7.682;2024-01-25T15:28:42;14.80;82.00
17307;DHT22;8771;48.048;7.682;2024-01-25T15:33:47;14.80;82.10
17307;DHT22;8771;48.048;7.682;2024-01-25T15:38:49;14.70;82.20
17307;DHT22;8771;48.048;7.682;2024-01-25T15:43:51;14.70;82.40
17307;DHT22;8771;48.048;7.682;2024-01-25T15:48:54;14.70;82.40
17307;DHT22;8771;48.048;7.682;2024-01-25T15:53:57;14.70;82.50
17307;DHT22;8771;48.048;7.682;2024-01-25T15:58:59;14.60;82.50
17307;DHT22;8771;48.048;7.682;2024-01-25T16:04:03;14.60;82.50
17307;DHT22;8771;48.048;7.682;2024-01-25T16:09:06;14.60;82.70
17307;DHT22;8771;48.048;7.682;2024-01-25T16:14:09;14.50;82.70
17307;DHT22;8771;48.048;7.682;2024-01-25T16:19:13;14.50;82.80
17307;DHT22;8771;48.048;7.682;2024-01-25T16:24:16;14.40;83.00
17307;DHT22;8771;48.048;7.682;2024-01-25T16:29:19;14.40;83.20
17307;DHT22;8771;48.048;7.682;2024-01-25T16:34:22;14.30;83.40
17307;DHT22;8771;48.048;7.682;2024-01-25T16:39:24;14.30;83.60
17307;DHT22;8771;48.048;7.682;2024-01-25T16:44:27;14.30;83.80
17307;DHT22;8771;48.048;7.682;2024-01-25T16:49:30;14.20;83.90
17307;DHT22;8771;48.048;7.682;2024-01-25T16:54:32;14.20;84.10
17307;DHT22;8771;48.048;7.682;2024-01-25T16:59:34;14.20;84.20
17307;DHT22;8771;48.048;7.682;2024-01-25T17:04:38;14.10;84.30
17307;DHT22;8771;48.048;7.682;2024-01-25T17:09:40;14.10;84.50
17307;DHT22;8771;48.048;7.682;2024-01-25T17:14:42;14.10;84.70
17307;DHT22;8771;48.048;7.682;2024-01-25T17:19:46;14.00;84.80
17307;DHT22;8771;48.048;7.682;2024-01-25T17:24:49;14.00;84.90
17307;DHT22;8771;48.048;7.682;2024-01-25T17:29:52;14.00;85.00
17307;DHT22;8771;48.048;7.682;2024-01-25T17:34:57;13.90;85.20
17307;DHT22;8771;48.048;7.682;2024-01-25T17:40:00;13.80;85.50
17307;DHT22;8771;48.048;7.682;2024-01-25T17:45:04;13.70;85.70
17307;DHT22;8771;48.048;7.682;2024-01-25T17:50:09;13.70;86.00
17307;DHT22;8771;48.048;7.682;2024-01-25T17:55:12;13.70;86.10
17307;DHT22;8771;48.048;7.682;2024-01-25T18:00:16;13.70;86.30
17307;DHT22;8771;48.048;7.682;2024-01-25T18:05:21;13.70;86.40
17307;DHT22;8771;48.048;7.682;2024-01-25T18:10:23;13.70;86.40
17307;DHT22;8771;48.048;7.682;2024-01-25T18:15:26;13.70;86.60
17307;DHT22;8771;48.048;7.682;2024-01-25T18:20:31;13.70;86.60
17307;DHT22;8771;48.048;7.682;2024-01-25T18:25:34;13.70;86.70
17307;DHT22;8771;48.048;7.682;2024-01-25T18:30:37;13.70;86.70
17307;DHT22;8771;48.048;7.682;2024-01-25T18:35:41;13.70;86.70
17307;DHT22;8771;48.048;7.682;2024-01-25T18:40:44;13.60;86.80
17307;DHT22;8771;48.048;7.682;2024-01-25T18:45:47;13.60;86.80
17307;DHT22;8771;48.048;7.682;2024-01-25T18:50:51;13.60;86.90
17307;DHT22;8771;48.048;7.682;2024-01-25T18:55:55;13.60;86.80
17307;DHT22;8771;48.048;7.682;2024-01-25T19:00:58;13.50;86.80
17307;DHT22;8771;48.048;7.682;2024-01-25T19:06:04;13.50;87.00
17307;DHT22;8771;48.048;7.682;2024-01-25T19:11:07;13.40;87.00
17307;DHT22;8771;48.048;7.682;2024-01-25T19:16:10;13.30;87.10
17307;DHT22;8771;48.048;7.682;2024-01-25T19:21:14;13.30;87.20
17307;DHT22;8771;48.048;7.682;2024-01-25T19:26:17;13.20;87.20
17307;DHT22;8771;48.048;7.682;2024-01-25T19:31:20;13.10;87.30
17307;DHT22;8771;48.048;7.682;2024-01-25T19:36:25;13.00;87.50
17307;DHT22;8771;48.048;7.682;2024-01-25T19:41:27;13.00;87.70
17307;DHT22;8771;48.048;7.682;2024-01-25T19:46:30;12.90;87.80
17307;DHT22;8771;48.048;7.682;2024-01-25T19:51:34;12.90;87.90
17307;DHT22;8771;48.048;7.682;2024-01-25T19:56:37;12.90;88.00
17307;DHT22;8771;48.048;7.682;2024-01-25T20:01:40;12.80;88.00
17307;DHT22;8771;48.048;7.682;2024-01-25T20:06:45;12.80;88.00
17307;DHT22;8771;48.048;7.682;2024-01-25T20:11:48;12.80;88.10
17307;DHT22;8771;48.048;7.682;2024-01-25T20:16:51;12.80;88.10
17307;DHT22;8771;48.048;7.682;2024-01-25T20:21:55;12.80;88.10
17307;DHT22;8771;48.048;7.682;2024-01-25T20:26:58;12.80;88.20
17307;DHT22;8771;48.048;7.682;2024-01-25T20:32:01;12.80;88.20
17307;DHT22;8771;48.048;7.682;2024-01-25T20:37:04;12.80;88.20
17307;DHT22;8771;48.048;7.682;2024-01-25T20:42:06;12.80;88.20
17307;DHT22;8771;48.048;7.682;2024-01-25T20:47:09;12.90;88.30
17307;DHT22;8771;48.048;7.682;2024-01-25T20:52:12;12.90;88.20
17307;DHT22;8771;48.048;7.682;2024-01-25T20:57:14;12.90;88.20
17307;DHT22;8771;48.048;7.682;2024-01-25T21:02:18;12.90;88.20
17307;DHT22;8771;48.048;7.682;2024-01-25T21:07:22;12.80;88.20
17307;DHT22;8771;48.048;7.682;2024-01-25T21:12:24;12.80;88.30
17307;DHT22;8771;48.048;7.682;2024-01-25T21:17:28;12.80;88.30
17307;DHT22;8771;48.048;7.682;2024-01-25T21:22:33;12.80;88.30
17307;DHT22;8771;48.048;7.682;2024-01-25T21:27:36;12.80;88.30
17307;DHT22;8771;48.048;7.682;2024-01-25T21:32:39;12.70;88.20
17307;DHT22;8771;48.048;7.682;2024-01-25T21:37:44;12.70;88.20
17307;DHT22;8771;48.048;7.682;2024-01-25T21:42:46;12.70;88.20
17307;DHT22;8771;48.048;7.682;2024-01-25T21:47:49;12.70;88.20
17307;DHT22;8771;48.048;7.682;2024-01-25T21:52:54;12.70;88.20
17307;DHT22;8771;48.048;7.682;2024-01-25T21:57:56;12.70;88.20
17307;DHT22;8771;48.048;7.682;2024-01-25T22:02:59;12.70;88.20
17307;DHT22;8771;48.048;7.682;2024-01-25T22:08:04;12.70;88.20
17307;DHT22;8771;48.048;7.682;2024-01-25T22:13:07;12.60;88.10
17307;DHT22;8771;48.048;7.682;2024-01-25T22:18:11;12.60;88.20
17307;DHT22;8771;48.048;7.682;2024-01-25T22:23:15;12.60;88.20
17307;DHT22;8771;48.048;7.682;2024-01-25T22:28:19;12.60;88.30
17307;DHT22;8771;48.048;7.682;2024-01-25T22:33:22;12.60;88.30
17307;DHT22;8771;48.048;7.682;2024-01-25T22:38:26;12.60;88.20
17307;DHT22;8771;48.048;7.682;2024-01-25T22:43:29;12.60;88.30
17307;DHT22;8771;48.048;7.682;2024-01-25T22:48:32;12.60;88.20
17307;DHT22;8771;48.048;7.682;2024-01-25T22:53:37;12.60;88.10
17307;DHT22;8771;48.048;7.682;2024-01-25T22:58:40;12.50;88.00
17307;DHT22;8771;48.048;7.682;2024-01-25T23:03:43;12.50;88.00
17307;DHT22;8771;48.048;7.682;2024-01-25T23:08:47;12.50;87.90
17307;DHT22;8771;48.048;7.682;2024-01-25T23:13:50;12.40;87.70
17307;DHT22;8771;48.048;7.682;2024-01-25T23:18:53;12.40;87.70
17307;DHT22;8771;48.048;7.682;2024-01-25T23:24:00;12.30;87.60
17307;DHT22;8771;48.048;7.682;2024-01-25T23:29:03;12.30;87.60
17307;DHT22;8771;48.048;7.682;2024-01-25T23:34:06;12.20;87.50
17307;DHT22;8771;48.048;7.682;2024-01-25T23:39:10;12.10;87.50
17307;DHT22;8771;48.048;7.682;2024-01-25T23:44:12;12.10;87.50
17307;DHT22;8771;48.048;7.682;2024-01-25T23:49:14;12.00;87.50
17307;DHT22;8771;48.048;7.682;2024-01-25T23:54:18;12.00;87.50
17307;DHT22;8771;48.048;7.682;2024-01-25T23:59:21;11.90;87.50
